Time;durP1;ratioP1;P1;durP2;ratioP2;P2;SDS_P1;SDS_P2;PMS_P1;PMS_P2;Temp;Humidity;BMP_temperature;BMP_pressure;BME280_temperature;BME280_humidity;BME280_pressure;Samples;Min_cycle;Max_cycle;Signal;HPM_P1;HPM_P2
2023/12/16 00:00:11;;;;;;;8.80;7.47;;;;;;;20.09;40.95;102940.81;4620200;31;20070;-59
2023/12/16 00:02:39;;;;;;;8.40;7.47;;;;;;;20.10;41.01;102937.19;4627500;31;20043;-59
2023/12/16 00:05:08;;;;;;;10.25;7.88;;;;;;;20.07;41.03;102942.72;4626091;31;20063;-56
2023/12/16 00:07:35;;;;;;;10.23;8.02;;;;;;;20.04;40.70;102948.28;4627615;31;20059;-60
2023/12/16 00:10:03;;;;;;;9.60;8.20;;;;;;;20.00;40.98;102944.88;4628277;31;20056;-60
2023/12/16 00:12:31;;;;;;;8.70;7.53;;;;;;;19.99;41.09;102951.22;4628120;31;20092;-56
2023/12/16 00:14:58;;;;;;;9.13;8.23;;;;;;;19.98;41.22;102949.50;4629674;31;20522;-58
2023/12/16 00:17:26;;;;;;;8.98;7.60;;;;;;;19.95;41.23;102946.97;4643233;30;20524;-58
2023/12/16 00:19:54;;;;;;;9.85;8.00;;;;;;;19.93;41.33;102947.06;4644403;30;20059;-58
2023/12/16 00:22:21;;;;;;;9.68;7.38;;;;;;;19.93;41.40;102951.53;4631401;31;20431;-62
2023/12/16 00:24:48;;;;;;;8.40;7.47;;;;;;;19.91;41.16;102956.16;4629074;31;20148;-59
2023/12/16 00:27:16;;;;;;;9.13;7.38;;;;;;;19.90;41.30;102957.97;4631088;31;20051;-62
2023/12/16 00:29:43;;;;;;;9.40;7.60;;;;;;;19.89;41.02;102960.72;4631263;31;20524;-63
2023/12/16 00:32:11;;;;;;;9.63;7.78;;;;;;;19.88;41.09;102970.59;4631273;31;20062;-63
2023/12/16 00:34:38;;;;;;;8.70;7.53;;;;;;;19.88;41.17;102969.75;4626636;31;20051;-63
2023/12/16 00:37:06;;;;;;;9.02;7.32;;;;;;;19.87;40.84;102957.25;4609751;31;20054;-62
2023/12/16 00:39:33;;;;;;;10.88;8.00;;;;;;;19.86;40.98;102966.28;4630836;31;20534;-63
2023/12/16 00:42:00;;;;;;;9.18;7.38;;;;;;;19.86;40.80;102963.59;4631503;31;20062;-63
2023/12/16 00:44:28;;;;;;;10.88;7.40;;;;;;;19.86;40.89;102952.84;4629280;31;20047;-63
2023/12/16 00:46:55;;;;;;;8.27;7.45;;;;;;;19.85;40.90;102964.53;4630723;31;20070;-61
2023/12/16 00:49:23;;;;;;;9.77;7.45;;;;;;;19.84;40.79;102950.22;4631233;31;20062;-62
2023/12/16 00:51:51;;;;;;;8.00;6.60;;;;;;;19.84;40.73;102946.69;4630965;31;20535;-63
2023/12/16 00:54:18;;;;;;;10.65;7.88;;;;;;;19.84;40.88;102946.69;4629194;31;20059;-59
2023/12/16 00:56:47;;;;;;;9.30;7.18;;;;;;;19.83;40.86;102937.75;4629325;31;20080;-59
2023/12/16 00:59:14;;;;;;;8.93;7.50;;;;;;;19.84;41.01;102960.13;4623975;31;20052;-59
2023/12/16 01:01:42;;;;;;;8.98;7.35;;;;;;;19.82;40.86;102948.59;4631396;31;20066;-59
2023/12/16 01:04:10;;;;;;;11.25;7.57;;;;;;;19.83;40.97;102950.31;4629066;31;20070;-59
2023/12/16 01:06:37;;;;;;;8.77;6.85;;;;;;;19.81;40.96;102945.03;4630229;31;20424;-61
2023/12/16 01:09:05;;;;;;;8.52;7.63;;;;;;;19.80;40.98;102945.09;4630678;31;20063;-63
2023/12/16 01:11:32;;;;;;;8.98;8.00;;;;;;;19.81;40.96;102946.84;4631068;31;20054;-63
2023/12/16 01:13:59;;;;;;;8.93;6.82;;;;;;;19.80;40.92;102945.97;4628576;31;20059;-63
2023/12/16 01:16:27;;;;;;;8.13;7.07;;;;;;;19.80;40.96;102945.09;4630606;31;20055;-59
2023/12/16 01:18:55;;;;;;;10.73;7.40;;;;;;;19.78;40.92;102950.56;4630451;31;20507;-59
2023/12/16 01:21:22;;;;;;;9.65;7.53;;;;;;;19.79;41.01;102938.88;4630401;31;20062;-59
2023/12/16 01:23:50;;;;;;;9.02;7.35;;;;;;;19.79;40.88;102954.13;4640826;30;20524;-59
2023/12/16 01:26:17;;;;;;;9.98;7.50;;;;;;;19.78;40.78;102941.66;4629308;31;20063;-61
2023/12/16 01:28:45;;;;;;;8.07;7.20;;;;;;;19.78;40.75;102936.28;4630366;30;20077;-59
2023/12/16 01:31:12;;;;;;;9.18;7.90;;;;;;;19.77;40.69;102943.47;4630093;31;20059;-59
2023/12/16 01:33:40;;;;;;;7.88;7.00;;;;;;;19.76;40.80;102939.03;4624520;31;20155;-59
2023/12/16 01:36:07;;;;;;;8.45;7.13;;;;;;;19.75;40.67;102948.06;4622272;31;20448;-61
2023/12/16 01:38:35;;;;;;;8.30;7.28;;;;;;;19.76;40.54;102949.78;4612413;31;20058;-63
2023/12/16 01:41:03;;;;;;;8.25;7.25;;;;;;;19.74;40.61;102947.19;4629950;31;20565;-62
2023/12/16 01:43:30;;;;;;;7.53;6.70;;;;;;;19.75;40.43;102950.72;4627773;31;20472;-63
2023/12/16 01:46:02;;;;;;;7.82;7.03;;;;;;;19.73;40.60;102956.22;4629862;31;20058;-61
2023/12/16 01:48:32;;;;;;;8.82;7.57;;;;;;;19.74;40.57;102957.06;4630356;31;20553;-63
2023/12/16 01:51:03;;;;;;;8.70;7.45;;;;;;;19.73;40.54;102955.34;4643088;30;20062;-63
2023/12/16 01:53:33;;;;;;;7.82;6.72;;;;;;;19.72;40.72;102951.75;4627093;31;20062;-63
2023/12/16 01:56:01;;;;;;;7.78;6.97;;;;;;;19.73;40.37;102948.16;4630187;31;20063;-59
2023/12/16 01:58:29;;;;;;;7.70;6.63;;;;;;;19.71;40.51;102946.47;4627306;31;20063;-59
2023/12/16 02:00:56;;;;;;;7.82;7.03;;;;;;;19.70;40.38;102945.63;4628048;31;20055;-59
2023/12/16 02:03:27;;;;;;;7.10;6.40;;;;;;;19.69;40.45;102949.25;4627462;31;20056;-59
2023/12/16 02:05:56;;;;;;;7.57;6.78;;;;;;;19.69;40.33;102949.25;4629771;31;20164;-61
2023/12/16 02:08:24;;;;;;;8.90;7.32;;;;;;;19.69;40.43;102943.88;4629967;31;20078;-61
2023/12/16 02:10:52;;;;;;;7.82;7.03;;;;;;;19.69;40.50;102943.88;4628659;31;20547;-62
2023/12/16 02:13:19;;;;;;;8.70;7.07;;;;;;;19.70;40.51;102939.38;4626177;31;20059;-62
2023/12/16 02:15:46;;;;;;;9.82;7.47;;;;;;;19.69;40.61;102935.81;4629807;31;20059;-62
2023/12/16 02:18:14;;;;;;;8.45;6.90;;;;;;;19.69;40.65;102941.19;4629990;31;20063;-59
2023/12/16 02:20:41;;;;;;;8.02;6.85;;;;;;;19.68;40.59;102947.50;4628526;31;20062;-57
2023/12/16 02:23:18;;;;;;;8.13;6.65;;;;;;;19.68;40.72;102955.56;4626710;31;20064;-57
2023/12/16 02:25:45;;;;;;;7.38;6.68;;;;;;;19.68;40.66;102952.00;4629728;31;20062;-58
2023/12/16 02:28:13;;;;;;;8.75;7.35;;;;;;;19.68;40.87;102954.69;4629984;31;20508;-59
2023/12/16 02:30:40;;;;;;;7.55;6.82;;;;;;;19.68;40.73;102958.25;4627379;31;20055;-60
2023/12/16 02:33:08;;;;;;;8.82;7.35;;;;;;;19.67;40.81;102961.03;4629009;31;20055;-60
2023/12/16 02:35:35;;;;;;;7.97;6.68;;;;;;;19.68;40.78;102970.81;4629381;30;20464;-60
2023/12/16 02:38:03;;;;;;;8.50;7.22;;;;;;;19.68;40.63;102968.13;4608875;31;20064;-59
2023/12/16 02:40:30;;;;;;;8.07;7.03;;;;;;;19.67;40.62;102971.78;4617426;31;20106;-61
2023/12/16 02:42:58;;;;;;;8.80;7.28;;;;;;;19.67;40.52;102969.97;4628831;31;20508;-59
2023/12/16 02:45:25;;;;;;;8.25;6.72;;;;;;;19.66;40.65;102972.75;4629395;31;20066;-60
2023/12/16 02:47:52;;;;;;;7.88;6.53;;;;;;;19.66;40.57;102967.38;4629229;31;20063;-59
2023/12/16 02:50:20;;;;;;;8.05;6.97;;;;;;;19.66;40.53;102978.97;4627279;31;20504;-56
2023/12/16 02:52:47;;;;;;;8.23;6.90;;;;;;;19.66;40.68;102978.13;4628402;31;20082;-56
2023/12/16 02:55:17;;;;;;;10.23;7.63;;;;;;;19.66;40.59;102975.44;4628986;31;20077;-56
2023/12/16 02:57:44;;;;;;;8.60;6.90;;;;;;;19.66;40.74;102976.28;4621077;31;20055;-56
2023/12/16 03:00:12;;;;;;;8.25;7.18;;;;;;;19.64;40.85;102980.88;4626686;31;20066;-57
2023/12/16 03:02:39;;;;;;;8.13;6.93;;;;;;;19.64;40.67;102983.53;4628298;31;20447;-57
2023/12/16 03:05:07;;;;;;;7.45;6.75;;;;;;;19.64;40.79;102988.91;4629069;30;20055;-57
2023/12/16 03:07:34;;;;;;;8.15;7.35;;;;;;;19.64;40.61;102988.91;4628655;31;20055;-57
2023/12/16 03:10:02;;;;;;;9.43;7.15;;;;;;;19.63;40.52;102987.19;4626336;31;20055;-57
2023/12/16 03:12:30;;;;;;;7.95;7.15;;;;;;;19.64;40.81;102998.81;4628422;31;20055;-57
2023/12/16 03:14:58;;;;;;;7.30;6.55;;;;;;;19.63;40.65;102994.38;4628700;31;20074;-57
2023/12/16 03:17:25;;;;;;;7.18;6.47;;;;;;;19.63;40.60;102997.06;4628653;31;20082;-57
2023/12/16 03:19:52;;;;;;;8.30;7.50;;;;;;;19.62;40.61;103001.59;4626235;31;20060;-57
2023/12/16 03:22:20;;;;;;;8.00;6.88;;;;;;;19.62;40.48;102995.34;4629093;31;20055;-57
2023/12/16 03:24:47;;;;;;;7.93;6.60;;;;;;;19.61;40.41;102991.78;4629077;31;20495;-57
2023/12/16 03:27:14;;;;;;;8.73;6.78;;;;;;;19.60;40.43;103000.75;4629118;31;20451;-57
2023/12/16 03:29:42;;;;;;;7.88;6.97;;;;;;;19.60;40.45;102998.06;4626552;31;20059;-57
2023/12/16 03:32:09;;;;;;;8.80;7.28;;;;;;;19.60;40.41;103006.13;4628376;31;20067;-57
2023/12/16 03:34:36;;;;;;;7.03;6.28;;;;;;;19.61;40.61;103010.59;4628886;31;20055;-57
2023/12/16 03:37:04;;;;;;;6.72;6.03;;;;;;;19.60;40.59;103010.63;4628769;31;20051;-59
2023/12/16 03:39:31;;;;;;;7.72;6.53;;;;;;;19.60;40.91;103014.19;4604101;31;20072;-60
2023/12/16 03:41:59;;;;;;;6.70;5.90;;;;;;;19.60;41.12;103008.81;4627175;31;20062;-61
2023/12/16 03:44:26;;;;;;;8.15;7.13;;;;;;;19.61;41.19;103015.97;4628772;31;20073;-61
2023/12/16 03:46:54;;;;;;;8.02;6.03;;;;;;;19.61;41.05;103009.72;4628421;31;20499;-57
2023/12/16 03:49:21;;;;;;;7.32;6.22;;;;;;;19.61;41.31;103015.97;4630863;31;20111;-57
2023/12/16 03:51:50;;;;;;;6.82;5.78;;;;;;;19.61;41.08;103021.34;4646865;30;20070;-58
2023/12/16 03:54:18;;;;;;;8.10;6.38;;;;;;;19.60;41.06;103029.44;4633910;31;20077;-57
2023/12/16 03:56:45;;;;;;;7.03;6.32;;;;;;;19.58;40.94;103032.22;4632951;31;20062;-57
2023/12/16 03:59:13;;;;;;;7.15;6.10;;;;;;;19.58;40.92;103036.72;4631938;31;20058;-57
2023/12/16 04:01:45;;;;;;;7.70;6.57;;;;;;;19.59;41.07;103047.38;4625725;31;20499;-57
2023/12/16 04:04:13;;;;;;;7.97;7.15;;;;;;;19.58;40.83;103040.28;4634392;31;20063;-57
2023/12/16 04:06:44;;;;;;;7.78;6.55;;;;;;;19.58;40.98;103050.16;4633937;31;20512;-57
2023/12/16 04:09:11;;;;;;;7.50;6.25;;;;;;;19.58;41.10;103055.53;4645260;30;20059;-57
2023/12/16 04:11:46;;;;;;;7.93;6.55;;;;;;;19.56;40.78;103055.59;4633730;31;20062;-57
2023/12/16 04:14:14;;;;;;;7.28;5.97;;;;;;;19.57;40.98;103061.84;4634011;31;20053;-57
2023/12/16 04:16:41;;;;;;;7.05;5.90;;;;;;;19.56;41.05;103058.28;4633443;31;20058;-57
2023/12/16 04:19:09;;;;;;;7.50;6.70;;;;;;;19.57;40.94;103053.78;4631721;31;20127;-57
2023/12/16 04:21:37;;;;;;;7.50;6.25;;;;;;;19.56;41.06;103060.97;4633875;31;20058;-57
2023/12/16 04:24:05;;;;;;;8.02;6.40;;;;;;;19.55;41.14;103050.31;4646973;30;20070;-57
2023/12/16 04:26:35;;;;;;;8.88;6.63;;;;;;;19.56;40.73;103060.09;4632911;31;20500;-60
2023/12/16 04:29:02;;;;;;;7.22;6.45;;;;;;;19.55;40.86;103056.56;4632224;31;20056;-61
2023/12/16 04:31:29;;;;;;;7.28;5.88;;;;;;;19.55;40.94;103059.25;4633764;31;20058;-61
2023/12/16 04:33:57;;;;;;;8.48;6.45;;;;;;;19.55;40.97;103063.75;4633842;31;20062;-60
2023/12/16 04:36:24;;;;;;;6.55;5.85;;;;;;;19.54;40.94;103051.28;4632909;30;20071;-57
2023/12/16 04:38:52;;;;;;;8.07;6.82;;;;;;;19.54;41.04;103062.03;4628937;31;20068;-59
2023/12/16 04:41:22;;;;;;;8.50;6.60;;;;;;;19.54;40.68;103068.25;4618594;31;20062;-58
2023/12/16 04:43:50;;;;;;;8.25;5.43;;;;;;;19.54;40.68;103067.38;4633851;31;20062;-58
2023/12/16 04:46:20;;;;;;;7.13;6.13;;;;;;;19.53;40.82;103063.84;4633076;31;20051;-59
2023/12/16 04:48:48;;;;;;;7.15;5.90;;;;;;;19.52;40.74;103065.63;4631800;31;20071;-59
2023/12/16 04:51:19;;;;;;;6.30;5.53;;;;;;;19.52;40.73;103070.13;4633396;31;20051;-59
2023/12/16 04:53:47;;;;;;;7.40;5.90;;;;;;;19.52;40.67;103078.19;4633828;31;20063;-58
2023/12/16 04:56:14;;;;;;;6.28;5.53;;;;;;;19.52;40.65;103072.81;4631158;31;20062;-59
2023/12/16 04:58:42;;;;;;;7.72;5.88;;;;;;;19.51;40.69;103071.97;4625456;31;20055;-59
2023/12/16 05:01:09;;;;;;;6.65;5.88;;;;;;;19.51;40.59;103084.53;4629938;31;20064;-59
2023/12/16 05:03:39;;;;;;;5.85;5.25;;;;;;;19.50;40.81;103083.66;4629545;31;20174;-59
2023/12/16 05:06:08;;;;;;;7.32;5.60;;;;;;;19.50;40.82;103099.78;4628138;31;20107;-62
2023/12/16 05:08:35;;;;;;;7.30;5.55;;;;;;;19.50;40.57;103104.28;4630686;31;20404;-62
2023/12/16 05:11:03;;;;;;;6.22;5.30;;;;;;;19.49;40.61;103100.72;4630492;31;20067;-62
2023/12/16 05:13:30;;;;;;;6.72;5.28;;;;;;;19.49;40.58;103099.88;4630389;31;20085;-63
2023/12/16 05:15:57;;;;;;;6.22;5.30;;;;;;;19.49;40.63;103098.03;4625993;31;20051;-61
2023/12/16 05:18:25;;;;;;;6.90;5.45;;;;;;;19.48;40.72;103104.34;4630433;31;20063;-63
2023/12/16 05:20:53;;;;;;;6.43;5.00;;;;;;;19.48;40.57;103107.03;4631009;31;20059;-63
2023/12/16 05:23:20;;;;;;;6.68;5.25;;;;;;;19.50;40.56;103112.34;4630424;31;20060;-63
2023/12/16 05:25:49;;;;;;;5.57;4.60;;;;;;;19.47;40.69;103117.88;4627790;31;20059;-59
2023/12/16 05:28:16;;;;;;;7.35;5.28;;;;;;;19.46;40.57;103133.13;4622080;31;20420;-58
2023/12/16 05:30:44;;;;;;;6.00;5.00;;;;;;;19.47;40.60;103128.59;4630360;31;20062;-58
2023/12/16 05:33:11;;;;;;;7.55;5.90;;;;;;;19.47;40.54;103140.22;4630197;31;20066;-58
2023/12/16 05:35:39;;;;;;;5.45;4.90;;;;;;;19.46;40.70;103141.19;4627744;31;20055;-58
2023/12/16 05:38:07;;;;;;;6.80;5.13;;;;;;;19.44;40.64;103135.00;4630377;31;20082;-58
2023/12/16 05:40:34;;;;;;;5.65;5.05;;;;;;;19.45;40.63;103149.31;4617492;31;20060;-59
2023/12/16 05:43:02;;;;;;;6.85;5.05;;;;;;;19.45;40.46;103150.19;4623244;31;20440;-59
2023/12/16 05:45:29;;;;;;;5.88;5.18;;;;;;;19.45;40.49;103144.81;4627217;31;20492;-58
2023/12/16 05:47:57;;;;;;;7.65;4.97;;;;;;;19.46;40.49;103151.06;4610873;31;20066;-58
2023/12/16 05:50:24;;;;;;;5.88;4.70;;;;;;;19.45;40.87;103154.69;4630244;31;20059;-58
2023/12/16 05:52:51;;;;;;;6.95;5.07;;;;;;;19.46;40.60;103156.44;4629673;31;20059;-58
2023/12/16 05:55:19;;;;;;;5.78;4.53;;;;;;;19.44;40.65;103152.94;4626858;31;20063;-59
2023/12/16 05:57:46;;;;;;;6.07;4.63;;;;;;;19.43;40.57;103165.50;4621472;31;20074;-59
2023/12/16 06:00:14;;;;;;;6.00;4.90;;;;;;;19.44;40.54;103169.06;4629915;31;20427;-58
2023/12/16 06:02:41;;;;;;;6.60;4.65;;;;;;;19.44;40.67;103169.06;4629831;30;20078;-59
2023/12/16 06:05:09;;;;;;;5.13;4.40;;;;;;;19.43;40.84;103180.75;4627317;31;20056;-58
2023/12/16 06:07:36;;;;;;;6.25;4.60;;;;;;;19.43;40.73;103181.63;4610813;31;20078;-62
2023/12/16 06:10:04;;;;;;;5.57;4.57;;;;;;;19.43;40.57;103180.75;4629865;31;20515;-63
2023/12/16 06:12:34;;;;;;;6.45;4.90;;;;;;;19.43;40.67;103184.31;4628040;31;20051;-62
2023/12/16 06:15:02;;;;;;;5.88;4.20;;;;;;;19.43;40.65;103170.88;4628652;31;20504;-63
2023/12/16 06:17:29;;;;;;;7.93;5.05;;;;;;;19.43;40.85;103178.06;4629786;31;20055;-62
2023/12/16 06:19:56;;;;;;;5.85;4.53;;;;;;;19.41;40.70;103185.34;4629869;31;20063;-63
2023/12/16 06:22:24;;;;;;;5.20;4.70;;;;;;;19.41;40.80;103185.34;4629729;31;20072;-63
2023/12/16 06:24:52;;;;;;;5.18;4.30;;;;;;;19.42;40.70;103181.72;4626562;31;20052;-63
2023/12/16 06:27:19;;;;;;;5.20;4.50;;;;;;;19.41;40.91;103180.84;4629715;31;20058;-61
2023/12/16 06:29:47;;;;;;;5.93;4.55;;;;;;;19.41;40.75;103186.22;4627259;31;20063;-63
2023/12/16 06:32:14;;;;;;;6.65;4.65;;;;;;;19.40;40.71;103188.94;4629567;31;20062;-62
2023/12/16 06:34:41;;;;;;;6.68;5.47;;;;;;;19.40;40.80;103184.44;4626195;31;20063;-63
2023/12/16 06:37:09;;;;;;;5.82;4.57;;;;;;;19.41;40.72;103182.66;4629289;31;20056;-58
2023/12/16 06:39:36;;;;;;;5.88;4.47;;;;;;;19.39;40.72;103190.78;4628990;31;20287;-59
2023/12/16 06:42:03;;;;;;;4.95;4.25;;;;;;;19.40;40.67;103199.69;4609843;31;20071;-58
2023/12/16 06:44:31;;;;;;;4.40;3.70;;;;;;;19.39;40.63;103196.16;4626992;31;20420;-59
2023/12/16 06:46:58;;;;;;;5.53;4.63;;;;;;;19.40;40.80;103194.31;4629515;31;20129;-58
2023/12/16 06:49:26;;;;;;;5.05;4.35;;;;;;;19.38;40.73;103194.41;4629223;31;20052;-59
2023/12/16 06:51:53;;;;;;;7.40;4.75;;;;;;;19.37;40.63;103189.13;4629178;31;20055;-59
2023/12/16 06:54:21;;;;;;;4.85;3.92;;;;;;;19.37;40.52;103191.81;4624315;31;20067;-59
2023/12/16 06:56:49;;;;;;;6.10;3.95;;;;;;;19.36;40.50;103192.72;4609369;31;20508;-61
2023/12/16 06:59:17;;;;;;;6.57;4.50;;;;;;;19.36;40.51;103196.28;4624167;31;20066;-62
2023/12/16 07:01:44;;;;;;;6.38;4.50;;;;;;;19.35;40.40;103197.25;4629041;31;20059;-62
2023/12/16 07:04:12;;;;;;;5.18;4.53;;;;;;;19.35;40.53;103191.00;4626586;31;20056;-62
2023/12/16 07:06:39;;;;;;;6.93;4.65;;;;;;;19.36;40.44;103203.47;4629064;31;20055;-62
2023/12/16 07:09:07;;;;;;;5.03;4.28;;;;;;;19.36;40.58;103192.72;4628810;31;20070;-62
2023/12/16 07:11:35;;;;;;;5.55;4.85;;;;;;;19.35;40.48;103201.75;4628855;31;20500;-62
2023/12/16 07:14:02;;;;;;;6.20;4.68;;;;;;;19.35;40.66;103204.44;4625606;31;20059;-63
2023/12/16 07:16:30;;;;;;;5.65;4.60;;;;;;;19.34;40.64;103203.56;4627375;31;20057;-63
2023/12/16 07:18:58;;;;;;;5.97;4.65;;;;;;;19.35;40.69;103209.81;4627076;31;20062;-62
2023/12/16 07:21:27;;;;;;;6.40;4.50;;;;;;;19.34;40.78;103213.44;4628842;31;20059;-61
2023/12/16 07:23:54;;;;;;;4.85;3.67;;;;;;;19.36;40.89;103216.91;4623027;31;20063;-62
2023/12/16 07:26:22;;;;;;;7.00;4.70;;;;;;;19.35;41.21;103218.72;4628559;31;20055;-61
2023/12/16 07:28:50;;;;;;;8.38;4.80;;;;;;;19.35;40.40;103221.41;4629187;31;20055;-63
2023/12/16 07:31:17;;;;;;;5.50;4.90;;;;;;;19.34;40.09;103229.56;4628366;31;20374;-62
2023/12/16 07:33:45;;;;;;;5.63;4.53;;;;;;;19.34;39.91;103238.47;4623538;31;20067;-62
2023/12/16 07:36:12;;;;;;;4.95;4.45;;;;;;;19.34;40.05;103240.31;4628931;31;20051;-62
2023/12/16 07:38:40;;;;;;;6.95;4.55;;;;;;;19.35;40.49;103242.91;4640848;30;20078;-60
2023/12/16 07:41:08;;;;;;;5.65;4.13;;;;;;;19.36;41.01;103250.00;4628283;31;20066;-60
2023/12/16 07:43:35;;;;;;;5.88;4.10;;;;;;;19.37;41.27;103251.78;4601248;31;20145;-60
2023/12/16 07:46:04;;;;;;;8.38;4.68;;;;;;;19.38;41.02;103256.19;4628760;31;20056;-60
2023/12/16 07:48:32;;;;;;;5.43;4.32;;;;;;;19.39;41.28;103259.75;4628244;31;20051;-60
2023/12/16 07:51:00;;;;;;;6.40;4.07;;;;;;;19.41;41.42;103269.47;4628047;31;20059;-60
2023/12/16 07:53:27;;;;;;;5.07;4.22;;;;;;;19.42;41.75;103270.34;4619432;31;20055;-60
2023/12/16 07:55:56;;;;;;;8.85;4.78;;;;;;;19.43;41.80;103264.03;4625837;31;20075;-60
2023/12/16 07:58:23;;;;;;;6.47;4.53;;;;;;;19.44;41.75;103271.13;4640448;30;20086;-62
2023/12/16 08:00:51;;;;;;;5.82;4.50;;;;;;;19.46;41.83;103282.69;4627893;31;20416;-61
2023/12/16 08:03:18;;;;;;;6.03;4.43;;;;;;;19.46;41.79;103282.69;4633346;30;20059;-59
2023/12/16 08:05:47;;;;;;;4.60;4.00;;;;;;;19.48;41.84;103286.16;4628126;31;20444;-59
2023/12/16 08:08:14;;;;;;;6.80;4.22;;;;;;;19.48;41.87;103292.41;4628785;31;20055;-58
2023/12/16 08:10:41;;;;;;;7.68;4.22;;;;;;;19.49;41.71;103301.38;4627671;31;20066;-58
2023/12/16 08:13:09;;;;;;;8.02;4.80;;;;;;;19.49;40.85;103307.59;4625419;31;20052;-58
2023/12/16 08:15:36;;;;;;;8.93;5.97;;;;;;;19.49;39.75;103314.78;4627823;31;20057;-58
2023/12/16 08:18:05;;;;;;;6.07;5.00;;;;;;;19.48;39.82;103316.59;4628210;31;20052;-58
2023/12/16 08:20:33;;;;;;;7.45;5.18;;;;;;;19.50;40.71;103316.53;4626168;31;20400;-58
2023/12/16 08:23:02;;;;;;;7.57;4.82;;;;;;;19.49;40.32;103314.78;4625768;31;20067;-58
2023/12/16 08:25:29;;;;;;;5.75;4.80;;;;;;;19.49;39.66;103322.84;4628441;31;20071;-60
2023/12/16 08:27:57;;;;;;;6.70;4.38;;;;;;;19.50;39.57;103330.84;4627794;31;20488;-59
2023/12/16 08:30:24;;;;;;;6.28;4.95;;;;;;;19.52;39.78;103333.44;4627435;31;20055;-61
2023/12/16 08:32:52;;;;;;;5.28;4.38;;;;;;;19.55;40.13;103338.66;4625893;31;20427;-61
2023/12/16 08:35:19;;;;;;;6.72;4.35;;;;;;;19.56;40.83;103340.41;4630319;31;20055;-61
2023/12/16 08:37:47;;;;;;;6.18;4.75;;;;;;;19.57;40.69;103343.97;4631514;31;20496;-60
2023/12/16 08:40:14;;;;;;;6.18;4.13;;;;;;;19.57;40.61;103346.66;4629655;31;20063;-61
2023/12/16 08:42:42;;;;;;;5.35;3.92;;;;;;;19.57;40.98;103363.66;4628085;31;20059;-61
2023/12/16 08:45:10;;;;;;;7.10;4.00;;;;;;;19.58;40.71;103364.53;4610787;31;20055;-63
2023/12/16 08:47:38;;;;;;;5.82;3.70;;;;;;;19.58;40.66;103360.03;4631045;31;20508;-63
2023/12/16 08:50:07;;;;;;;4.57;3.67;;;;;;;19.58;40.53;103368.09;4630033;31;20472;-63
2023/12/16 08:52:35;;;;;;;5.05;3.80;;;;;;;19.58;40.43;103368.09;4629010;31;20119;-63
2023/12/16 08:55:04;;;;;;;7.80;3.67;;;;;;;19.57;40.47;103374.41;4630926;31;20100;-61
2023/12/16 08:57:32;;;;;;;6.18;3.92;;;;;;;19.57;40.40;103379.78;4623833;31;20043;-62
2023/12/16 08:59:59;;;;;;;6.18;3.80;;;;;;;19.57;40.40;103382.47;4629924;31;20055;-62
2023/12/16 09:02:27;;;;;;;5.30;3.83;;;;;;;19.58;40.43;103386.91;4629228;31;20060;-62
2023/12/16 09:04:54;;;;;;;5.18;3.90;;;;;;;19.58;40.43;103396.78;4630567;31;20055;-61
2023/12/16 09:07:22;;;;;;;5.25;3.40;;;;;;;19.57;40.42;103400.38;4630588;31;20051;-61
2023/12/16 09:09:49;;;;;;;5.63;3.88;;;;;;;19.57;40.23;103403.97;4629353;31;20055;-62
2023/12/16 09:12:16;;;;;;;5.72;3.70;;;;;;;19.57;40.32;103403.06;4629054;31;20064;-61
2023/12/16 09:14:44;;;;;;;4.75;3.47;;;;;;;19.57;40.19;103406.66;4630608;31;20058;-61
2023/12/16 09:17:11;;;;;;;5.53;3.88;;;;;;;19.57;40.37;103405.75;4630742;31;20059;-62
2023/12/16 09:19:38;;;;;;;4.05;3.47;;;;;;;19.59;40.35;103409.25;4628929;31;20519;-63
2023/12/16 09:22:06;;;;;;;5.70;3.97;;;;;;;19.58;40.26;103408.41;4629161;31;20068;-63
2023/12/16 09:24:34;;;;;;;5.18;3.88;;;;;;;19.57;40.40;103401.28;4630206;31;20432;-63
2023/12/16 09:27:01;;;;;;;5.28;3.60;;;;;;;19.57;40.23;103403.97;4630267;31;20424;-62
2023/12/16 09:29:28;;;;;;;6.15;4.07;;;;;;;19.57;40.35;103401.28;4629454;31;20066;-62
2023/12/16 09:31:56;;;;;;;5.25;3.85;;;;;;;19.56;40.33;103396.84;4628873;31;20060;-61
2023/12/16 09:34:23;;;;;;;5.43;3.80;;;;;;;19.57;40.35;103400.38;4630110;31;20062;-62
2023/12/16 09:36:50;;;;;;;5.15;4.05;;;;;;;19.57;40.34;103406.66;4630618;31;20059;-62
2023/12/16 09:39:18;;;;;;;4.57;3.42;;;;;;;19.57;40.54;103401.28;4628982;31;20078;-61
2023/12/16 09:41:45;;;;;;;6.07;3.85;;;;;;;19.58;40.34;103412.91;4628635;31;20064;-61
2023/12/16 09:44:19;;;;;;;5.47;3.63;;;;;;;19.57;40.46;103409.34;4624314;31;20512;-62
2023/12/16 09:46:47;;;;;;;5.28;3.45;;;;;;;19.57;40.43;103406.66;4600255;31;20513;-62
2023/12/16 09:49:15;;;;;;;8.25;3.95;;;;;;;19.58;40.30;103405.72;4620342;31;20066;-63
2023/12/16 09:51:43;;;;;;;4.32;3.10;;;;;;;19.57;40.35;103393.22;4619846;31;20062;-63
2023/12/16 09:54:11;;;;;;;5.15;3.70;;;;;;;19.57;40.31;103387.84;4619117;31;20063;-61
2023/12/16 09:56:39;;;;;;;5.55;3.80;;;;;;;19.56;40.57;103386.09;4619162;31;20059;-63
2023/12/16 09:59:10;;;;;;;4.55;3.40;;;;;;;19.58;40.29;103386.03;4621753;30;20063;-63
2023/12/16 10:01:37;;;;;;;4.57;3.72;;;;;;;19.56;40.34;103386.09;4618803;31;20063;-63
2023/12/16 10:04:07;;;;;;;6.10;3.78;;;;;;;19.56;40.38;103378.03;4615492;31;20082;-63
2023/12/16 10:06:35;;;;;;;5.22;3.72;;;;;;;19.56;40.32;103375.34;4631749;30;20056;-62
2023/12/16 10:09:02;;;;;;;4.85;3.40;;;;;;;19.57;40.40;103376.19;4621349;31;20123;-63
2023/12/16 10:11:37;;;;;;;5.10;3.53;;;;;;;19.57;40.51;103381.56;4618537;31;20059;-63
2023/12/16 10:14:05;;;;;;;5.28;3.88;;;;;;;19.55;40.17;103381.66;4619188;31;20060;-63
2023/12/16 10:16:33;;;;;;;4.30;3.22;;;;;;;19.56;40.40;103383.41;4618824;31;20390;-62
2023/12/16 10:19:01;;;;;;;4.88;3.90;;;;;;;19.57;40.19;103386.94;4608904;31;20523;-63
2023/12/16 10:21:33;;;;;;;5.20;3.33;;;;;;;19.56;40.26;103385.22;4618997;31;20060;-63
2023/12/16 10:24:02;;;;;;;5.03;3.42;;;;;;;19.56;40.20;103383.41;4618815;31;20424;-63
2023/12/16 10:26:31;;;;;;;5.47;3.80;;;;;;;19.57;40.34;103378.88;4619585;31;20055;-62
2023/12/16 10:29:00;;;;;;;4.93;3.28;;;;;;;19.57;40.26;103378.88;4619858;31;20055;-63
2023/12/16 10:31:28;;;;;;;5.30;3.65;;;;;;;19.57;40.34;103381.56;4618236;31;20492;-63
2023/12/16 10:34:00;;;;;;;4.15;2.97;;;;;;;19.56;40.15;103367.28;4618847;31;20131;-63
2023/12/16 10:36:29;;;;;;;4.63;3.38;;;;;;;19.57;40.35;103379.78;4620224;31;20428;-62
2023/12/16 10:38:59;;;;;;;4.28;3.60;;;;;;;19.57;40.41;103374.41;4618141;31;20068;-63
2023/12/16 10:41:27;;;;;;;5.22;4.00;;;;;;;19.57;40.45;103369.03;4618093;31;20500;-63
2023/12/16 10:43:55;;;;;;;4.60;3.08;;;;;;;19.58;40.44;103368.09;4618271;31;20071;-63
2023/12/16 10:46:30;;;;;;;4.25;3.05;;;;;;;19.57;40.38;103363.66;4605254;31;20059;-62
2023/12/16 10:49:00;;;;;;;3.88;3.08;;;;;;;19.57;40.35;103354.72;4607097;31;20059;-61
2023/12/16 10:51:32;;;;;;;5.93;3.33;;;;;;;19.57;40.35;103357.38;4617909;31;20059;-61
2023/12/16 10:54:25;;;;;;;4.53;3.08;;;;;;;19.57;40.32;103352.91;4617460;31;20064;-61
2023/12/16 10:57:03;;;;;;;;;;;;;;;19.55;40.38;103356.59;4608863;31;20071;-62
2023/12/16 10:59:33;;;;;;;4.90;3.45;;;;;;;19.56;40.27;103356.53;4618140;31;19929;-63
2023/12/16 11:02:15;;;;;;;4.43;3.35;;;;;;;19.56;40.34;103343.09;4619899;31;20063;-63
2023/12/16 11:04:46;;;;;;;4.70;3.13;;;;;;;19.55;40.33;103338.66;4608487;31;20067;-63
2023/12/16 11:07:21;;;;;;;5.07;2.90;;;;;;;19.56;40.33;103326.09;4618028;31;20063;-61
2023/12/16 11:09:49;;;;;;;4.73;3.27;;;;;;;19.56;40.50;103316.22;4619750;31;20056;-62
2023/12/16 11:12:19;;;;;;;5.00;3.22;;;;;;;19.56;40.43;103328.78;4618492;31;20472;-62
2023/12/16 11:14:47;;;;;;;3.95;2.70;;;;;;;19.55;40.41;103333.28;4617679;31;20569;-62
2023/12/16 11:17:27;;;;;;;5.18;2.78;;;;;;;19.56;40.39;103342.22;4617929;31;20078;-62
2023/12/16 11:20:20;;;;;;;3.90;2.95;;;;;;;19.55;40.30;103349.41;4617721;31;20059;-62
2023/12/16 11:22:51;;;;;;;4.50;2.97;;;;;;;19.56;40.35;103347.59;4614900;31;20068;-62
2023/12/16 11:25:21;;;;;;;3.97;2.90;;;;;;;19.56;40.25;103355.66;4617708;31;20305;-62
2023/12/16 11:27:50;;;;;;;3.55;2.97;;;;;;;19.55;40.32;103345.88;4620407;30;20062;-62